Time;durP1;ratioP1;P1;durP2;ratioP2;P2;SDS_P1;SDS_P2;PMS_P1;PMS_P2;Temp;Humidity;BMP_temperature;BMP_pressure;BME280_temperature;BME280_humidity;BME280_pressure;Samples;Min_cycle;Max_cycle;Signal;HPM_P1;HPM_P2
2020/11/03 00:00:54;;;;;;;4.7;2.45;;;;;;;15.56;100;95550.61;;;;
2020/11/03 00:01:54;;;;;;;4.6;2.2;;;;;;;15.6;100;95554.58;;;;
2020/11/03 00:03:29;;;;;;;4.6;2.2;;;;;;;15.6;100;95554.58;;;;
2020/11/03 00:04:29;;;;;;;4.6;2.2;;;;;;;15.6;100;95554.58;;;;
2020/11/03 00:05:30;;;;;;;4.6;2.2;;;;;;;15.6;100;95554.58;;;;
2020/11/03 00:06:30;;;;;;;4.6;2.2;;;;;;;15.6;100;95554.58;;;;
2020/11/03 00:07:31;;;;;;;4.6;2.2;;;;;;;15.6;100;95554.58;;;;
2020/11/03 00:08:31;;;;;;;4.6;2.2;;;;;;;15.6;100;95554.58;;;;
2020/11/03 00:09:32;;;;;;;4.6;2.2;;;;;;;15.6;100;95554.58;;;;
2020/11/03 00:10:32;;;;;;;4.6;2.2;;;;;;;15.6;100;95554.58;;;;
2020/11/03 00:11:33;;;;;;;4.6;2.2;;;;;;;15.6;100;95554.58;;;;
2020/11/03 00:12:33;;;;;;;2.95;2.2;;;;;;;15.5;100;95559.95;;;;
2020/11/03 00:13:34;;;;;;;2.95;2.2;;;;;;;15.5;100;95559.95;;;;
2020/11/03 00:14:34;;;;;;;2.95;2.2;;;;;;;15.5;100;95559.95;;;;
2020/11/03 00:15:35;;;;;;;2.95;2.2;;;;;;;15.5;100;95559.95;;;;
2020/11/03 00:16:35;;;;;;;2.95;2.2;;;;;;;15.5;100;95559.95;;;;
2020/11/03 00:17:37;;;;;;;2.95;2.2;;;;;;;15.5;100;95559.95;;;;
2020/11/03 00:18:38;;;;;;;2.95;2.2;;;;;;;15.5;100;95559.95;;;;
2020/11/03 00:19:38;;;;;;;2.95;2.2;;;;;;;15.5;100;95559.95;;;;
2020/11/03 00:20:39;;;;;;;2.95;2.2;;;;;;;15.5;100;95559.95;;;;
2020/11/03 00:21:39;;;;;;;2.95;2.2;;;;;;;15.5;100;95559.95;;;;
2020/11/03 00:22:40;;;;;;;3.25;2.2;;;;;;;15.33;100;95553.8;;;;
2020/11/03 00:23:40;;;;;;;3.25;2.2;;;;;;;15.33;100;95553.8;;;;
2020/11/03 00:24:41;;;;;;;3.25;2.2;;;;;;;15.33;100;95553.8;;;;
2020/11/03 00:25:41;;;;;;;3.25;2.2;;;;;;;15.33;100;95553.8;;;;
2020/11/03 00:26:42;;;;;;;3.25;2.2;;;;;;;15.33;100;95553.8;;;;
2020/11/03 00:27:42;;;;;;;3.25;2.2;;;;;;;15.33;100;95553.8;;;;
2020/11/03 00:28:43;;;;;;;3.25;2.2;;;;;;;15.33;100;95553.8;;;;
2020/11/03 00:29:44;;;;;;;3.25;2.2;;;;;;;15.33;100;95553.8;;;;
2020/11/03 00:30:44;;;;;;;3.25;2.2;;;;;;;15.33;100;95553.8;;;;
2020/11/03 00:31:45;;;;;;;3.25;2.2;;;;;;;15.33;100;95553.8;;;;
2020/11/03 00:32:45;;;;;;;3.25;2.2;;;;;;;15.33;100;95553.8;;;;
2020/11/03 00:33:47;;;;;;;3.35;2.3;;;;;;;15.03;100;95560.58;;;;
2020/11/03 00:34:47;;;;;;;3.35;2.3;;;;;;;15.03;100;95560.58;;;;
2020/11/03 00:35:48;;;;;;;3.35;2.3;;;;;;;15.03;100;95560.58;;;;
2020/11/03 00:36:49;;;;;;;3.35;2.3;;;;;;;15.03;100;95560.58;;;;
2020/11/03 00:37:50;;;;;;;3.35;2.3;;;;;;;15.03;100;95560.58;;;;
2020/11/03 00:38:50;;;;;;;3.35;2.3;;;;;;;15.03;100;95560.58;;;;
2020/11/03 00:39:51;;;;;;;3.35;2.3;;;;;;;15.03;100;95560.58;;;;
2020/11/03 00:40:51;;;;;;;3.35;2.3;;;;;;;15.03;100;95560.58;;;;
2020/11/03 00:41:52;;;;;;;3.35;2.3;;;;;;;15.03;100;95560.58;;;;
2020/11/03 00:42:52;;;;;;;3.35;2.3;;;;;;;15.03;100;95560.58;;;;
2020/11/03 00:43:53;;;;;;;3.1;2.4;;;;;;;14.73;100;95569.75;;;;
2020/11/03 00:44:53;;;;;;;3.1;2.4;;;;;;;14.73;100;95569.75;;;;
2020/11/03 00:45:54;;;;;;;3.1;2.4;;;;;;;14.73;100;95569.75;;;;
2020/11/03 00:46:54;;;;;;;3.1;2.4;;;;;;;14.73;100;95569.75;;;;
2020/11/03 00:47:55;;;;;;;3.1;2.4;;;;;;;14.73;100;95569.75;;;;
2020/11/03 00:48:55;;;;;;;3.1;2.4;;;;;;;14.73;100;95569.75;;;;
2020/11/03 00:49:56;;;;;;;3.1;2.4;;;;;;;14.73;100;95569.75;;;;
2020/11/03 00:50:56;;;;;;;3.1;2.4;;;;;;;14.73;100;95569.75;;;;
2020/11/03 00:51:57;;;;;;;3.1;2.4;;;;;;;14.73;100;95569.75;;;;
2020/11/03 00:52:57;;;;;;;3.1;2.4;;;;;;;14.73;100;95569.75;;;;
2020/11/03 00:53:58;;;;;;;3.1;2.4;;;;;;;14.73;100;95569.75;;;;
2020/11/03 00:54:58;;;;;;;3.25;2.05;;;;;;;14.46;100;95585.74;;;;
2020/11/03 00:55:59;;;;;;;3.25;2.05;;;;;;;14.46;100;95585.74;;;;
2020/11/03 00:56:59;;;;;;;3.25;2.05;;;;;;;14.46;100;95585.74;;;;
2020/11/03 00:58:00;;;;;;;3.25;2.05;;;;;;;14.46;100;95585.74;;;;
2020/11/03 00:59:00;;;;;;;3.25;2.05;;;;;;;14.46;100;95585.74;;;;
2020/11/03 01:00:01;;;;;;;3.25;2.05;;;;;;;14.46;100;95585.74;;;;
2020/11/03 01:01:02;;;;;;;3.25;2.05;;;;;;;14.46;100;95585.74;;;;
2020/11/03 01:02:03;;;;;;;3.25;2.05;;;;;;;14.46;100;95585.74;;;;
2020/11/03 01:03:03;;;;;;;3.25;2.05;;;;;;;14.46;100;95585.74;;;;
2020/11/03 01:04:04;;;;;;;3.25;2.05;;;;;;;14.46;100;95585.74;;;;
2020/11/03 01:05:04;;;;;;;4.05;2.3;;;;;;;14.36;100;95591.02;;;;
2020/11/03 01:06:05;;;;;;;4.05;2.3;;;;;;;14.36;100;95591.02;;;;
2020/11/03 01:07:05;;;;;;;4.05;2.3;;;;;;;14.36;100;95591.02;;;;
2020/11/03 01:08:06;;;;;;;4.05;2.3;;;;;;;14.36;100;95591.02;;;;
2020/11/03 01:09:06;;;;;;;4.05;2.3;;;;;;;14.36;100;95591.02;;;;
2020/11/03 01:10:07;;;;;;;4.05;2.3;;;;;;;14.36;100;95591.02;;;;
2020/11/03 01:11:07;;;;;;;4.05;2.3;;;;;;;14.36;100;95591.02;;;;
2020/11/03 01:12:08;;;;;;;4.05;2.3;;;;;;;14.36;100;95591.02;;;;
2020/11/03 01:13:09;;;;;;;4.05;2.3;;;;;;;14.36;100;95591.02;;;;
2020/11/03 01:14:09;;;;;;;4.05;2.3;;;;;;;14.36;100;95591.02;;;;
2020/11/03 01:15:10;;;;;;;4.05;2.3;;;;;;;14.36;100;95591.02;;;;
2020/11/03 01:16:10;;;;;;;4.4;2.6;;;;;;;14.23;100;95586.75;;;;
2020/11/03 01:17:11;;;;;;;4.4;2.6;;;;;;;14.23;100;95586.75;;;;
2020/11/03 01:18:11;;;;;;;4.4;2.6;;;;;;;14.23;100;95586.75;;;;
2020/11/03 01:19:12;;;;;;;4.4;2.6;;;;;;;14.23;100;95586.75;;;;
2020/11/03 01:20:12;;;;;;;4.4;2.6;;;;;;;14.23;100;95586.75;;;;
2020/11/03 01:21:13;;;;;;;4.4;2.6;;;;;;;14.23;100;95586.75;;;;
2020/11/03 01:22:13;;;;;;;4.4;2.6;;;;;;;14.23;100;95586.75;;;;
2020/11/03 01:23:15;;;;;;;4.4;2.6;;;;;;;14.23;100;95586.75;;;;
2020/11/03 01:24:15;;;;;;;4.4;2.6;;;;;;;14.23;100;95586.75;;;;
2020/11/03 01:25:16;;;;;;;4.4;2.6;;;;;;;14.23;100;95586.75;;;;
2020/11/03 01:26:17;;;;;;;2.4;2.2;;;;;;;14.3;100;95583.34;;;;
2020/11/03 01:27:18;;;;;;;2.4;2.2;;;;;;;14.3;100;95583.34;;;;
2020/11/03 01:28:18;;;;;;;2.4;2.2;;;;;;;14.3;100;95583.34;;;;
2020/11/03 01:29:19;;;;;;;2.4;2.2;;;;;;;14.3;100;95583.34;;;;
2020/11/03 01:30:19;;;;;;;2.4;2.2;;;;;;;14.3;100;95583.34;;;;
2020/11/03 01:31:20;;;;;;;2.4;2.2;;;;;;;14.3;100;95583.34;;;;
2020/11/03 01:32:20;;;;;;;2.4;2.2;;;;;;;14.3;100;95583.34;;;;
2020/11/03 01:33:20;;;;;;;2.4;2.2;;;;;;;14.3;100;95583.34;;;;
2020/11/03 01:34:21;;;;;;;2.4;2.2;;;;;;;14.3;100;95583.34;;;;
2020/11/03 01:35:22;;;;;;;2.4;2.2;;;;;;;14.3;100;95583.34;;;;
2020/11/03 01:36:22;;;;;;;2.4;2.2;;;;;;;14.3;100;95583.34;;;;
2020/11/03 01:37:23;;;;;;;3.35;2.2;;;;;;;14.37;100;95590.8;;;;
2020/11/03 01:38:23;;;;;;;3.35;2.2;;;;;;;14.37;100;95590.8;;;;
2020/11/03 01:39:24;;;;;;;3.35;2.2;;;;;;;14.37;100;95590.8;;;;
2020/11/03 01:40:24;;;;;;;3.35;2.2;;;;;;;14.37;100;95590.8;;;;
2020/11/03 01:41:25;;;;;;;3.35;2.2;;;;;;;14.37;100;95590.8;;;;
2020/11/03 01:42:25;;;;;;;3.35;2.2;;;;;;;14.37;100;95590.8;;;;
2020/11/03 01:43:26;;;;;;;3.35;2.2;;;;;;;14.37;100;95590.8;;;;
2020/11/03 01:44:26;;;;;;;3.35;2.2;;;;;;;14.37;100;95590.8;;;;
2020/11/03 01:45:27;;;;;;;3.35;2.2;;;;;;;14.37;100;95590.8;;;;
2020/11/03 01:46:27;;;;;;;3.35;2.2;;;;;;;14.37;100;95590.8;;;;
2020/11/03 01:47:28;;;;;;;3.35;2.2;;;;;;;14.37;100;95590.8;;;;
2020/11/03 01:48:28;;;;;;;3.55;2.2;;;;;;;14.47;100;95605.03;;;;
2020/11/03 01:49:29;;;;;;;3.55;2.2;;;;;;;14.47;100;95605.03;;;;
2020/11/03 01:50:30;;;;;;;3.55;2.2;;;;;;;14.47;100;95605.03;;;;
2020/11/03 01:51:30;;;;;;;3.55;2.2;;;;;;;14.47;100;95605.03;;;;
2020/11/03 01:52:31;;;;;;;3.55;2.2;;;;;;;14.47;100;95605.03;;;;
2020/11/03 01:53:31;;;;;;;3.55;2.2;;;;;;;14.47;100;95605.03;;;;
2020/11/03 01:54:32;;;;;;;3.55;2.2;;;;;;;14.47;100;95605.03;;;;
2020/11/03 01:55:32;;;;;;;3.55;2.2;;;;;;;14.47;100;95605.03;;;;
2020/11/03 01:56:33;;;;;;;3.55;2.2;;;;;;;14.47;100;95605.03;;;;
2020/11/03 01:57:33;;;;;;;3.55;2.2;;;;;;;14.47;100;95605.03;;;;
2020/11/03 01:58:34;;;;;;;3.2;2.1;;;;;;;14.43;100;95599.69;;;;
2020/11/03 01:59:34;;;;;;;3.2;2.1;;;;;;;14.43;100;95599.69;;;;
2020/11/03 02:00:35;;;;;;;3.2;2.1;;;;;;;14.43;100;95599.69;;;;
2020/11/03 02:01:35;;;;;;;3.2;2.1;;;;;;;14.43;100;95599.69;;;;
2020/11/03 02:02:36;;;;;;;3.2;2.1;;;;;;;14.43;100;95599.69;;;;
2020/11/03 02:03:36;;;;;;;3.2;2.1;;;;;;;14.43;100;95599.69;;;;
2020/11/03 02:04:37;;;;;;;3.2;2.1;;;;;;;14.43;100;95599.69;;;;
2020/11/03 02:05:37;;;;;;;3.2;2.1;;;;;;;14.43;100;95599.69;;;;
2020/11/03 02:06:43;;;;;;;3.2;2.1;;;;;;;14.43;100;95599.69;;;;
2020/11/03 02:07:44;;;;;;;3.2;2.1;;;;;;;14.43;100;95599.69;;;;
2020/11/03 02:08:44;;;;;;;3.2;2.1;;;;;;;14.43;100;95599.69;;;;
2020/11/03 02:09:45;;;;;;;3.15;2.3;;;;;;;14.31;100;95605.38;;;;
2020/11/03 02:10:45;;;;;;;3.15;2.3;;;;;;;14.31;100;95605.38;;;;
2020/11/03 02:11:47;;;;;;;3.15;2.3;;;;;;;14.31;100;95605.38;;;;
2020/11/03 02:12:47;;;;;;;3.15;2.3;;;;;;;14.31;100;95605.38;;;;
2020/11/03 02:13:48;;;;;;;3.15;2.3;;;;;;;14.31;100;95605.38;;;;
2020/11/03 02:14:48;;;;;;;3.15;2.3;;;;;;;14.31;100;95605.38;;;;
2020/11/03 02:15:49;;;;;;;3.15;2.3;;;;;;;14.31;100;95605.38;;;;
2020/11/03 02:16:49;;;;;;;3.15;2.3;;;;;;;14.31;100;95605.38;;;;
2020/11/03 02:17:50;;;;;;;3.15;2.3;;;;;;;14.31;100;95605.38;;;;
2020/11/03 02:18:51;;;;;;;3.15;2.3;;;;;;;14.31;100;95605.38;;;;
2020/11/03 02:19:51;;;;;;;3.199999;2.5;;;;;;;14.02;100;95592.55;;;;
2020/11/03 02:20:52;;;;;;;3.199999;2.5;;;;;;;14.02;100;95592.55;;;;
2020/11/03 02:21:52;;;;;;;3.199999;2.5;;;;;;;14.02;100;95592.55;;;;
2020/11/03 02:22:53;;;;;;;3.199999;2.5;;;;;;;14.02;100;95592.55;;;;
2020/11/03 02:23:53;;;;;;;3.199999;2.5;;;;;;;14.02;100;95592.55;;;;
2020/11/03 02:24:54;;;;;;;3.199999;2.5;;;;;;;14.02;100;95592.55;;;;
2020/11/03 02:25:54;;;;;;;3.199999;2.5;;;;;;;14.02;100;95592.55;;;;
2020/11/03 02:26:55;;;;;;;3.199999;2.5;;;;;;;14.02;100;95592.55;;;;
2020/11/03 02:27:55;;;;;;;3.199999;2.5;;;;;;;14.02;100;95592.55;;;;
2020/11/03 02:28:56;;;;;;;3.199999;2.5;;;;;;;14.02;100;95592.55;;;;
2020/11/03 02:29:57;;;;;;;3.199999;2.5;;;;;;;14.02;100;95592.55;;;;
2020/11/03 02:30:57;;;;;;;3.1;2.3;;;;;;;13.87;100;95597.22;;;;
2020/11/03 02:31:58;;;;;;;3.1;2.3;;;;;;;13.87;100;95597.22;;;;
2020/11/03 02:32:58;;;;;;;3.1;2.3;;;;;;;13.87;100;95597.22;;;;
2020/11/03 02:33:59;;;;;;;3.1;2.3;;;;;;;13.87;100;95597.22;;;;
2020/11/03 02:34:59;;;;;;;3.1;2.3;;;;;;;13.87;100;95597.22;;;;
2020/11/03 02:36:00;;;;;;;3.1;2.3;;;;;;;13.87;100;95597.22;;;;
2020/11/03 02:37:00;;;;;;;3.1;2.3;;;;;;;13.87;100;95597.22;;;;
2020/11/03 02:38:01;;;;;;;3.1;2.3;;;;;;;13.87;100;95597.22;;;;
2020/11/03 02:39:01;;;;;;;3.1;2.3;;;;;;;13.87;100;95597.22;;;;
2020/11/03 02:40:02;;;;;;;3.1;2.3;;;;;;;13.87;100;95597.22;;;;
2020/11/03 02:41:04;;;;;;;3.6;2.3;;;;;;;13.77;100;95607.51;;;;
2020/11/03 02:42:04;;;;;;;3.6;2.3;;;;;;;13.77;100;95607.51;;;;
2020/11/03 02:43:05;;;;;;;3.6;2.3;;;;;;;13.77;100;95607.51;;;;
2020/11/03 02:44:05;;;;;;;3.6;2.3;;;;;;;13.77;100;95607.51;;;;
2020/11/03 02:45:06;;;;;;;3.6;2.3;;;;;;;13.77;100;95607.51;;;;
2020/11/03 02:46:08;;;;;;;3.6;2.3;;;;;;;13.77;100;95607.51;;;;
2020/11/03 02:47:09;;;;;;;3.6;2.3;;;;;;;13.77;100;95607.51;;;;
2020/11/03 02:48:10;;;;;;;3.6;2.3;;;;;;;13.77;100;95607.51;;;;
2020/11/03 02:49:10;;;;;;;3.6;2.3;;;;;;;13.77;100;95607.51;;;;
2020/11/03 02:50:11;;;;;;;3.6;2.3;;;;;;;13.77;100;95607.51;;;;
2020/11/03 02:51:13;;;;;;;3.6;2.3;;;;;;;13.77;100;95607.51;;;;
2020/11/03 02:52:13;;;;;;;3.45;2.25;;;;;;;13.73;100;95614.5;;;;
2020/11/03 02:53:14;;;;;;;3.45;2.25;;;;;;;13.73;100;95614.5;;;;
2020/11/03 02:54:15;;;;;;;3.45;2.25;;;;;;;13.73;100;95614.5;;;;
2020/11/03 02:55:15;;;;;;;3.45;2.25;;;;;;;13.73;100;95614.5;;;;
2020/11/03 02:56:16;;;;;;;3.45;2.25;;;;;;;13.73;100;95614.5;;;;
2020/11/03 02:57:18;;;;;;;3.45;2.25;;;;;;;13.73;100;95614.5;;;;
2020/11/03 02:58:18;;;;;;;3.45;2.25;;;;;;;13.73;100;95614.5;;;;
2020/11/03 02:59:19;;;;;;;3.45;2.25;;;;;;;13.73;100;95614.5;;;;
2020/11/03 03:00:19;;;;;;;3.45;2.25;;;;;;;13.73;100;95614.5;;;;
2020/11/03 03:01:20;;;;;;;3.45;2.25;;;;;;;13.73;100;95614.5;;;;
2020/11/03 03:02:21;;;;;;;3.55;2.2;;;;;;;13.58;100;95608.71;;;;
2020/11/03 03:03:21;;;;;;;3.55;2.2;;;;;;;13.58;100;95608.71;;;;
2020/11/03 03:04:22;;;;;;;3.55;2.2;;;;;;;13.58;100;95608.71;;;;
2020/11/03 03:05:22;;;;;;;3.55;2.2;;;;;;;13.58;100;95608.71;;;;
2020/11/03 03:06:23;;;;;;;3.55;2.2;;;;;;;13.58;100;95608.71;;;;
2020/11/03 03:07:23;;;;;;;3.55;2.2;;;;;;;13.58;100;95608.71;;;;
2020/11/03 03:08:24;;;;;;;3.55;2.2;;;;;;;13.58;100;95608.71;;;;
2020/11/03 03:09:25;;;;;;;3.55;2.2;;;;;;;13.58;100;95608.71;;;;
2020/11/03 03:10:25;;;;;;;3.55;2.2;;;;;;;13.58;100;95608.71;;;;
2020/11/03 03:11:26;;;;;;;3.55;2.2;;;;;;;13.58;100;95608.71;;;;
2020/11/03 03:12:26;;;;;;;3.55;2.2;;;;;;;13.58;100;95608.71;;;;
2020/11/03 03:13:27;;;;;;;2.75;2.45;;;;;;;13.52;100;95616.08;;;;
2020/11/03 03:14:27;;;;;;;2.75;2.45;;;;;;;13.52;100;95616.08;;;;
2020/11/03 03:15:28;;;;;;;2.75;2.45;;;;;;;13.52;100;95616.08;;;;
2020/11/03 03:16:28;;;;;;;2.75;2.45;;;;;;;13.52;100;95616.08;;;;
2020/11/03 03:17:29;;;;;;;2.75;2.45;;;;;;;13.52;100;95616.08;;;;
2020/11/03 03:18:29;;;;;;;2.75;2.45;;;;;;;13.52;100;95616.08;;;;
2020/11/03 03:19:30;;;;;;;2.75;2.45;;;;;;;13.52;100;95616.08;;;;
2020/11/03 03:20:30;;;;;;;2.75;2.45;;;;;;;13.52;100;95616.08;;;;
2020/11/03 03:21:31;;;;;;;2.75;2.45;;;;;;;13.52;100;95616.08;;;;
2020/11/03 03:22:32;;;;;;;2.75;2.45;;;;;;;13.52;100;95616.08;;;;
2020/11/03 03:23:33;;;;;;;2.75;2.45;;;;;;;13.52;100;95616.08;;;;
2020/11/03 03:24:33;;;;;;;3.6;2.45;;;;;;;13.34;100;95623.1;;;;
2020/11/03 03:25:34;;;;;;;3.6;2.45;;;;;;;13.34;100;95623.1;;;;
2020/11/03 03:26:34;;;;;;;3.6;2.45;;;;;;;13.34;100;95623.1;;;;
2020/11/03 03:27:36;;;;;;;3.6;2.45;;;;;;;13.34;100;95623.1;;;;
2020/11/03 03:28:36;;;;;;;3.6;2.45;;;;;;;13.34;100;95623.1;;;;
2020/11/03 03:29:37;;;;;;;3.6;2.45;;;;;;;13.34;100;95623.1;;;;
2020/11/03 03:30:37;;;;;;;3.6;2.45;;;;;;;13.34;100;95623.1;;;;
2020/11/03 03:31:38;;;;;;;3.6;2.45;;;;;;;13.34;100;95623.1;;;;
2020/11/03 03:32:38;;;;;;;3.6;2.45;;;;;;;13.34;100;95623.1;;;;
2020/11/03 03:33:40;;;;;;;3.6;2.45;;;;;;;13.34;100;95623.1;;;;
2020/11/03 03:34:40;;;;;;;3;2.7;;;;;;;13.23;100;95637.95;;;;
2020/11/03 03:35:41;;;;;;;3;2.7;;;;;;;13.23;100;95637.95;;;;
2020/11/03 03:36:41;;;;;;;3;2.7;;;;;;;13.23;100;95637.95;;;;
2020/11/03 03:37:42;;;;;;;3;2.7;;;;;;;13.23;100;95637.95;;;;
2020/11/03 03:38:43;;;;;;;3;2.7;;;;;;;13.23;100;95637.95;;;;
2020/11/03 03:39:43;;;;;;;3;2.7;;;;;;;13.23;100;95637.95;;;;
2020/11/03 03:40:43;;;;;;;3;2.7;;;;;;;13.23;100;95637.95;;;;
2020/11/03 03:41:44;;;;;;;3;2.7;;;;;;;13.23;100;95637.95;;;;
2020/11/03 03:42:44;;;;;;;3;2.7;;;;;;;13.23;100;95637.95;;;;
2020/11/03 03:43:45;;;;;;;3;2.7;;;;;;;13.23;100;95637.95;;;;
2020/11/03 03:44:45;;;;;;;3;2.7;;;;;;;13.23;100;95637.95;;;;
2020/11/03 03:45:46;;;;;;;4.6;2.7;;;;;;;13.14;100;95630.44;;;;
2020/11/03 03:46:47;;;;;;;4.6;2.7;;;;;;;13.14;100;95630.44;;;;
2020/11/03 03:47:47;;;;;;;4.6;2.7;;;;;;;13.14;100;95630.44;;;;
2020/11/03 03:48:48;;;;;;;4.6;2.7;;;;;;;13.14;100;95630.44;;;;
2020/11/03 03:49:49;;;;;;;4.6;2.7;;;;;;;13.14;100;95630.44;;;;
2020/11/03 03:50:49;;;;;;;4.6;2.7;;;;;;;13.14;100;95630.44;;;;
2020/11/03 03:51:50;;;;;;;4.6;2.7;;;;;;;13.14;100;95630.44;;;;
2020/11/03 03:52:50;;;;;;;4.6;2.7;;;;;;;13.14;100;95630.44;;;;
2020/11/03 03:53:50;;;;;;;4.6;2.7;;;;;;;13.14;100;95630.44;;;;
2020/11/03 03:54:51;;;;;;;4.6;2.7;;;;;;;13.14;100;95630.44;;;;
2020/11/03 03:55:51;;;;;;;3.7;2.55;;;;;;;13.2;100;95639.9;;;;
2020/11/03 03:56:52;;;;;;;3.7;2.55;;;;;;;13.2;100;95639.9;;;;
2020/11/03 03:57:53;;;;;;;3.7;2.55;;;;;;;13.2;100;95639.9;;;;
2020/11/03 03:58:53;;;;;;;3.7;2.55;;;;;;;13.2;100;95639.9;;;;
2020/11/03 03:59:53;;;;;;;3.7;2.55;;;;;;;13.2;100;95639.9;;;;
2020/11/03 04:00:54;;;;;;;3.7;2.55;;;;;;;13.2;100;95639.9;;;;
2020/11/03 04:01:55;;;;;;;3.7;2.55;;;;;;;13.2;100;95639.9;;;;
2020/11/03 04:02:55;;;;;;;3.7;2.55;;;;;;;13.2;100;95639.9;;;;
2020/11/03 04:03:56;;;;;;;3.7;2.55;;;;;;;13.2;100;95639.9;;;;
2020/11/03 04:04:56;;;;;;;3.7;2.55;;;;;;;13.2;100;95639.9;;;;
2020/11/03 04:05:57;;;;;;;3.7;2.55;;;;;;;13.2;100;95639.9;;;;
2020/11/03 04:06:58;;;;;;;2.6;2.4;;;;;;;13.24;100;95645;;;;
2020/11/03 04:07:58;;;;;;;2.6;2.4;;;;;;;13.24;100;95645;;;;
2020/11/03 04:08:59;;;;;;;2.6;2.4;;;;;;;13.24;100;95645;;;;
2020/11/03 04:10:01;;;;;;;2.6;2.4;;;;;;;13.24;100;95645;;;;
2020/11/03 04:11:03;;;;;;;2.6;2.4;;;;;;;13.24;100;95645;;;;
2020/11/03 04:12:03;;;;;;;2.6;2.4;;;;;;;13.24;100;95645;;;;
2020/11/03 04:13:06;;;;;;;2.6;2.4;;;;;;;13.24;100;95645;;;;
2020/11/03 04:14:06;;;;;;;2.6;2.4;;;;;;;13.24;100;95645;;;;
2020/11/03 04:15:07;;;;;;;2.6;2.4;;;;;;;13.24;100;95645;;;;
2020/11/03 04:16:08;;;;;;;2.6;2.4;;;;;;;13.24;100;95645;;;;
2020/11/03 04:17:08;;;;;;;2.65;2.45;;;;;;;13.38;100;95649.19;;;;
2020/11/03 04:18:09;;;;;;;2.65;2.45;;;;;;;13.38;100;95649.19;;;;
2020/11/03 04:19:10;;;;;;;2.65;2.45;;;;;;;13.38;100;95649.19;;;;
2020/11/03 04:20:10;;;;;;;2.65;2.45;;;;;;;13.38;100;95649.19;;;;
2020/11/03 04:21:11;;;;;;;2.65;2.45;;;;;;;13.38;100;95649.19;;;;
2020/11/03 04:22:12;;;;;;;2.65;2.45;;;;;;;13.38;100;95649.19;;;;
2020/11/03 04:23:12;;;;;;;2.65;2.45;;;;;;;13.38;100;95649.19;;;;
2020/11/03 04:24:14;;;;;;;2.65;2.45;;;;;;;13.38;100;95649.19;;;;
2020/11/03 04:25:14;;;;;;;2.65;2.45;;;;;;;13.38;100;95649.19;;;;
2020/11/03 04:26:15;;;;;;;2.65;2.45;;;;;;;13.38;100;95649.19;;;;
2020/11/03 04:27:16;;;;;;;2.65;2.45;;;;;;;13.38;100;95649.19;;;;
2020/11/03 04:28:16;;;;;;;2.4;2.2;;;;;;;13.47;100;95659.79;;;;
2020/11/03 04:29:17;;;;;;;2.4;2.2;;;;;;;13.47;100;95659.79;;;;
2020/11/03 04:30:17;;;;;;;2.4;2.2;;;;;;;13.47;100;95659.79;;;;
2020/11/03 04:31:18;;;;;;;2.4;2.2;;;;;;;13.47;100;95659.79;;;;
2020/11/03 04:32:18;;;;;;;2.4;2.2;;;;;;;13.47;100;95659.79;;;;
2020/11/03 04:33:19;;;;;;;2.4;2.2;;;;;;;13.47;100;95659.79;;;;
2020/11/03 04:34:19;;;;;;;2.4;2.2;;;;;;;13.47;100;95659.79;;;;
2020/11/03 04:35:20;;;;;;;2.4;2.2;;;;;;;13.47;100;95659.79;;;;
2020/11/03 04:36:20;;;;;;;2.4;2.2;;;;;;;13.47;100;95659.79;;;;
2020/11/03 04:37:21;;;;;;;2.4;2.2;;;;;;;13.47;100;95659.79;;;;
2020/11/03 04:38:21;;;;;;;3.900001;2.5;;;;;;;13.65;100;95665.97;;;;
2020/11/03 04:39:22;;;;;;;3.900001;2.5;;;;;;;13.65;100;95665.97;;;;
2020/11/03 04:40:23;;;;;;;3.900001;2.5;;;;;;;13.65;100;95665.97;;;;
2020/11/03 04:41:23;;;;;;;3.900001;2.5;;;;;;;13.65;100;95665.97;;;;
2020/11/03 04:42:24;;;;;;;3.900001;2.5;;;;;;;13.65;100;95665.97;;;;
2020/11/03 04:43:25;;;;;;;3.900001;2.5;;;;;;;13.65;100;95665.97;;;;
2020/11/03 04:44:26;;;;;;;3.900001;2.5;;;;;;;13.65;100;95665.97;;;;
2020/11/03 04:45:26;;;;;;;3.900001;2.5;;;;;;;13.65;100;95665.97;;;;
2020/11/03 04:46:27;;;;;;;3.900001;2.5;;;;;;;13.65;100;95665.97;;;;
2020/11/03 04:47:27;;;;;;;3.900001;2.5;;;;;;;13.65;100;95665.97;;;;
2020/11/03 04:48:29;;;;;;;3.900001;2.5;;;;;;;13.65;100;95665.97;;;;
2020/11/03 04:49:29;;;;;;;2.5;2.299999;;;;;;;13.73;100;95664.18;;;;
2020/11/03 04:50:30;;;;;;;2.5;2.299999;;;;;;;13.73;100;95664.18;;;;
2020/11/03 04:51:31;;;;;;;2.5;2.299999;;;;;;;13.73;100;95664.18;;;;
2020/11/03 04:52:31;;;;;;;2.5;2.299999;;;;;;;13.73;100;95664.18;;;;
2020/11/03 04:53:32;;;;;;;2.5;2.299999;;;;;;;13.73;100;95664.18;;;;
2020/11/03 04:54:32;;;;;;;2.5;2.299999;;;;;;;13.73;100;95664.18;;;;
2020/11/03 04:55:33;;;;;;;2.5;2.299999;;;;;;;13.73;100;95664.18;;;;
2020/11/03 04:56:33;;;;;;;2.5;2.299999;;;;;;;13.73;100;95664.18;;;;
2020/11/03 04:57:35;;;;;;;2.5;2.299999;;;;;;;13.73;100;95664.18;;;;
2020/11/03 04:58:37;;;;;;;2.5;2.299999;;;;;;;13.73;100;95664.18;;;;
2020/11/03 04:59:38;;;;;;;3.7;2.6;;;;;;;13.86;100;95666.69;;;;
2020/11/03 05:00:49;;;;;;;3.7;2.6;;;;;;;13.86;100;95666.69;;;;
2020/11/03 05:01:50;;;;;;;3.7;2.6;;;;;;;13.86;100;95666.69;;;;
2020/11/03 05:02:58;;;;;;;3.7;2.6;;;;;;;13.86;100;95666.69;;;;
2020/11/03 05:04:06;;;;;;;3.7;2.6;;;;;;;13.86;100;95666.69;;;;
2020/11/03 05:05:08;;;;;;;3.7;2.6;;;;;;;13.86;100;95666.69;;;;
2020/11/03 05:06:14;;;;;;;3.7;2.6;;;;;;;13.86;100;95666.69;;;;
2020/11/03 05:07:22;;;;;;;3.7;2.6;;;;;;;13.86;100;95666.69;;;;
2020/11/03 05:08:34;;;;;;;3.7;2.6;;;;;;;13.86;100;95666.69;;;;
2020/11/03 05:09:35;;;;;;;3.7;2.6;;;;;;;13.86;100;95666.69;;;;
2020/11/03 05:10:37;;;;;;;3.8;2.7;;;;;;;13.94;100;95667.1;;;;
2020/11/03 05:11:38;;;;;;;3.8;2.7;;;;;;;13.94;100;95667.1;;;;
2020/11/03 05:12:39;;;;;;;3.8;2.7;;;;;;;13.94;100;95667.1;;;;
2020/11/03 05:13:46;;;;;;;3.8;2.7;;;;;;;13.94;100;95667.1;;;;
2020/11/03 05:14:47;;;;;;;3.8;2.7;;;;;;;13.94;100;95667.1;;;;
2020/11/03 05:16:04;;;;;;;3.8;2.7;;;;;;;13.94;100;95667.1;;;;
2020/11/03 05:17:05;;;;;;;3.8;2.7;;;;;;;13.94;100;95667.1;;;;
2020/11/03 05:18:12;;;;;;;3.8;2.7;;;;;;;13.94;100;95667.1;;;;
2020/11/03 05:19:13;;;;;;;3.8;2.7;;;;;;;13.94;100;95667.1;;;;
2020/11/03 05:20:14;;;;;;;3.8;2.7;;;;;;;13.94;100;95667.1;;;;
2020/11/03 05:21:16;;;;;;;4.35;2.45;;;;;;;14.19;100;95673.47;;;;
2020/11/03 05:22:17;;;;;;;4.35;2.45;;;;;;;14.19;100;95673.47;;;;
2020/11/03 05:23:27;;;;;;;4.35;2.45;;;;;;;14.19;100;95673.47;;;;
2020/11/03 05:24:27;;;;;;;4.35;2.45;;;;;;;14.19;100;95673.47;;;;
2020/11/03 05:25:28;;;;;;;4.35;2.45;;;;;;;14.19;100;95673.47;;;;
2020/11/03 05:26:30;;;;;;;4.35;2.45;;;;;;;14.19;100;95673.47;;;;
2020/11/03 05:27:31;;;;;;;4.35;2.45;;;;;;;14.19;100;95673.47;;;;
2020/11/03 05:28:33;;;;;;;4.35;2.45;;;;;;;14.19;100;95673.47;;;;
2020/11/03 05:29:36;;;;;;;4.35;2.45;;;;;;;14.19;100;95673.47;;;;
2020/11/03 05:30:37;;;;;;;4.35;2.45;;;;;;;14.19;100;95673.47;;;;
2020/11/03 05:31:38;;;;;;;3;2.3;;;;;;;14.35;100;95683.95;;;;
2020/11/03 05:32:44;;;;;;;3;2.3;;;;;;;14.35;100;95683.95;;;;
2020/11/03 05:33:44;;;;;;;3;2.3;;;;;;;14.35;100;95683.95;;;;
2020/11/03 05:34:45;;;;;;;3;2.3;;;;;;;14.35;100;95683.95;;;;
2020/11/03 05:35:48;;;;;;;3;2.3;;;;;;;14.35;100;95683.95;;;;
2020/11/03 05:36:48;;;;;;;3;2.3;;;;;;;14.35;100;95683.95;;;;
2020/11/03 05:37:51;;;;;;;3;2.3;;;;;;;14.35;100;95683.95;;;;
2020/11/03 05:38:59;;;;;;;3;2.3;;;;;;;14.35;100;95683.95;;;;
2020/11/03 05:40:03;;;;;;;3;2.3;;;;;;;14.35;100;95683.95;;;;
2020/11/03 05:41:04;;;;;;;3;2.3;;;;;;;14.35;100;95683.95;;;;
2020/11/03 05:42:04;;;;;;;3;2.3;;;;;;;14.35;100;95683.95;;;;
2020/11/03 05:43:07;;;;;;;3.05;2.5;;;;;;;14.55;100;95701.08;;;;
2020/11/03 05:44:09;;;;;;;3.05;2.5;;;;;;;14.55;100;95701.08;;;;
2020/11/03 05:45:10;;;;;;;3.05;2.5;;;;;;;14.55;100;95701.08;;;;
2020/11/03 05:46:10;;;;;;;3.05;2.5;;;;;;;14.55;100;95701.08;;;;
2020/11/03 05:47:11;;;;;;;3.05;2.5;;;;;;;14.55;100;95701.08;;;;
2020/11/03 05:48:12;;;;;;;3.05;2.5;;;;;;;14.55;100;95701.08;;;;
2020/11/03 05:49:20;;;;;;;3.05;2.5;;;;;;;14.55;100;95701.08;;;;
2020/11/03 05:50:23;;;;;;;3.05;2.5;;;;;;;14.55;100;95701.08;;;;
2020/11/03 05:51:34;;;;;;;3.05;2.5;;;;;;;14.55;100;95701.08;;;;
2020/11/03 05:52:57;;;;;;;3.3;2.75;;;;;;;14.63;100;95717.77;;;;
2020/11/03 05:53:59;;;;;;;3.3;2.75;;;;;;;14.63;100;95717.77;;;;
2020/11/03 05:55:00;;;;;;;3.3;2.75;;;;;;;14.63;100;95717.77;;;;
2020/11/03 05:56:02;;;;;;;3.3;2.75;;;;;;;14.63;100;95717.77;;;;
2020/11/03 05:57:05;;;;;;;3.3;2.75;;;;;;;14.63;100;95717.77;;;;
2020/11/03 05:58:14;;;;;;;3.3;2.75;;;;;;;14.63;100;95717.77;;;;
2020/11/03 05:59:14;;;;;;;3.3;2.75;;;;;;;14.63;100;95717.77;;;;
2020/11/03 06:00:15;;;;;;;3.3;2.75;;;;;;;14.63;100;95717.77;;;;
2020/11/03 06:01:18;;;;;;;3.3;2.75;;;;;;;14.63;100;95717.77;;;;
2020/11/03 06:02:23;;;;;;;3.3;2.75;;;;;;;14.63;100;95717.77;;;;
2020/11/03 06:03:24;;;;;;;3.3;2.75;;;;;;;14.63;100;95717.77;;;;
2020/11/03 06:04:25;;;;;;;5.949999;3.25;;;;;;;14.6;100;95744.09;;;;
2020/11/03 06:05:44;;;;;;;5.949999;3.25;;;;;;;14.6;100;95744.09;;;;
2020/11/03 06:06:47;;;;;;;5.949999;3.25;;;;;;;14.6;100;95744.09;;;;
2020/11/03 06:07:47;;;;;;;5.949999;3.25;;;;;;;14.6;100;95744.09;;;;
2020/11/03 06:08:48;;;;;;;5.949999;3.25;;;;;;;14.6;100;95744.09;;;;
2020/11/03 06:09:48;;;;;;;5.949999;3.25;;;;;;;14.6;100;95744.09;;;;
2020/11/03 06:10:49;;;;;;;5.949999;3.25;;;;;;;14.6;100;95744.09;;;;
2020/11/03 06:11:50;;;;;;;5.949999;3.25;;;;;;;14.6;100;95744.09;;;;
2020/11/03 06:12:50;;;;;;;5.949999;3.25;;;;;;;14.6;100;95744.09;;;;
2020/11/03 06:13:51;;;;;;;5.949999;3.25;;;;;;;14.6;100;95744.09;;;;
2020/11/03 06:15:11;;;;;;;4.15;3.750001;;;;;;;14.44;100;95752.14;;;;
2020/11/03 06:16:13;;;;;;;4.15;3.750001;;;;;;;14.44;100;95752.14;;;;
2020/11/03 06:17:14;;;;;;;4.15;3.750001;;;;;;;14.44;100;95752.14;;;;
2020/11/03 06:18:18;;;;;;;4.15;3.750001;;;;;;;14.44;100;95752.14;;;;
2020/11/03 06:19:24;;;;;;;4.15;3.750001;;;;;;;14.44;100;95752.14;;;;
2020/11/03 06:20:26;;;;;;;4.15;3.750001;;;;;;;14.44;100;95752.14;;;;